createdAt,value
2022-10-03T00:00:16.282Z,-1.00
2022-10-03T00:03:40.058Z,-1.00
2022-10-03T00:06:30.286Z,-1.00
2022-10-03T00:09:07.213Z,-1.00
2022-10-03T00:12:02.885Z,-1.00
2022-10-03T00:14:48.933Z,-1.00
2022-10-03T00:17:37.284Z,-1.00
2022-10-03T00:20:41.197Z,-1.00
2022-10-03T00:23:22.016Z,-1.00
2022-10-03T00:26:23.423Z,-1.00
2022-10-03T00:29:16.345Z,-1.00
2022-10-03T00:32:10.681Z,-1.00
2022-10-03T00:35:07.019Z,-1.00
2022-10-03T00:37:37.958Z,-1.00
2022-10-03T00:40:18.174Z,-1.00
2022-10-03T00:43:07.875Z,-1.00
2022-10-03T00:46:13.327Z,-1.00
2022-10-03T00:49:14.394Z,-1.00
2022-10-03T00:52:09.516Z,-1.00
2022-10-03T00:55:03.153Z,-1.00
2022-10-03T00:57:42.878Z,-1.00
2022-10-03T01:00:17.621Z,-1.00
2022-10-03T01:03:08.905Z,-1.00
2022-10-03T01:06:15.043Z,-1.00
2022-10-03T01:09:12.208Z,-1.00
2022-10-03T01:11:52.956Z,-1.00
2022-10-03T01:14:47.307Z,-1.00
2022-10-03T01:18:05.538Z,-1.00
2022-10-03T01:20:44.248Z,-1.00
2022-10-03T01:23:42.012Z,-1.00
2022-10-03T01:26:43.901Z,-1.00
2022-10-03T01:30:12.181Z,-1.00
2022-10-03T01:33:07.610Z,-1.00
2022-10-03T01:36:11.091Z,-1.00
2022-10-03T01:39:00.780Z,-1.00
2022-10-03T01:41:33.844Z,-1.00
2022-10-03T01:44:23.709Z,-1.00
2022-10-03T01:47:29.150Z,-1.00
2022-10-03T01:49:59.886Z,-1.00
2022-10-03T01:52:54.902Z,-1.00
2022-10-03T01:55:35.007Z,-1.00
2022-10-03T01:58:35.583Z,-1.00
2022-10-03T02:01:21.884Z,-1.00
2022-10-03T02:04:01.808Z,-1.00
2022-10-03T02:07:01.838Z,-1.00
2022-10-03T02:09:39.657Z,-1.00
2022-10-03T02:12:14.209Z,-1.00
2022-10-03T02:15:04.056Z,-1.00
2022-10-03T02:17:41.562Z,-1.00
2022-10-03T02:20:23.880Z,-1.00
2022-10-03T02:22:58.148Z,-1.00
2022-10-03T02:26:17.417Z,-1.00
2022-10-03T02:28:54.806Z,-1.00
2022-10-03T02:31:50.456Z,-1.00
2022-10-03T02:34:43.223Z,-1.00
2022-10-03T02:37:31.968Z,-1.00
2022-10-03T02:40:45.889Z,-1.00
2022-10-03T02:43:55.301Z,-1.00
2022-10-03T02:46:46.900Z,-1.00
2022-10-03T02:49:23.796Z,-1.00
2022-10-03T02:52:23.627Z,-1.00
2022-10-03T02:55:21.229Z,-1.00
2022-10-03T02:58:07.068Z,-1.00
2022-10-03T03:01:19.036Z,-1.00
2022-10-03T03:04:17.658Z,-1.00
2022-10-03T03:07:02.642Z,-1.00
2022-10-03T03:09:53.536Z,-1.00
2022-10-03T03:12:41.533Z,-1.00
2022-10-03T03:15:28.544Z,-1.00
2022-10-03T03:18:22.731Z,-1.00
2022-10-03T03:20:52.257Z,-1.00
2022-10-03T03:23:57.843Z,-1.00
2022-10-03T03:26:46.245Z,-1.00
2022-10-03T03:29:29.517Z,-1.00
2022-10-03T03:32:16.176Z,-1.00
2022-10-03T03:35:03.433Z,-1.00
2022-10-03T03:38:04.249Z,-1.00
2022-10-03T03:41:00.262Z,-1.00
2022-10-03T03:44:06.566Z,-1.00
2022-10-03T03:47:05.145Z,-1.00
2022-10-03T03:49:59.281Z,-1.00
2022-10-03T03:53:04.880Z,-1.00
2022-10-03T03:55:56.388Z,-1.00
2022-10-03T03:58:36.460Z,-1.00
2022-10-03T04:01:25.537Z,-1.00
2022-10-03T04:04:13.147Z,-1.00
2022-10-03T04:07:00.221Z,-1.00
2022-10-03T04:09:51.571Z,-1.00
2022-10-03T04:12:46.146Z,-1.00
2022-10-03T04:15:54.918Z,-1.00
2022-10-03T04:19:00.043Z,-1.00
2022-10-03T04:21:50.796Z,-1.00
2022-10-03T04:24:37.561Z,-1.00
2022-10-03T04:27:14.429Z,-1.00
2022-10-03T04:30:08.073Z,-1.00
2022-10-03T04:32:59.113Z,-1.00
2022-10-03T04:35:48.446Z,-1.00
2022-10-03T04:38:35.350Z,-1.00
2022-10-03T04:41:17.206Z,-1.00
2022-10-03T04:43:49.084Z,-1.00
2022-10-03T04:46:42.831Z,-1.00
2022-10-03T04:49:20.775Z,-1.00
2022-10-03T04:51:57.474Z,-1.00
2022-10-03T04:54:48.437Z,-1.00
2022-10-03T04:57:49.705Z,-1.00
2022-10-03T05:00:43.785Z,-1.00
2022-10-03T05:03:38.231Z,-1.00
2022-10-03T05:06:49.239Z,-1.00
2022-10-03T05:09:16.959Z,-1.00
2022-10-03T05:11:59.778Z,-1.00
2022-10-03T05:14:52.537Z,-1.00
2022-10-03T05:17:38.589Z,-1.00
2022-10-03T05:20:15.991Z,-1.00
2022-10-03T05:22:49.941Z,-1.00
2022-10-03T05:25:29.857Z,-1.00
2022-10-03T05:28:06.543Z,-1.00
2022-10-03T05:30:46.133Z,-1.00
2022-10-03T05:33:34.055Z,-1.00
2022-10-03T05:36:26.289Z,-1.00
2022-10-03T05:39:16.414Z,-1.00
2022-10-03T05:42:22.663Z,-1.00
2022-10-03T05:45:00.272Z,-1.00
2022-10-03T05:47:46.168Z,-1.00
2022-10-03T05:50:41.829Z,-1.00
2022-10-03T05:53:31.715Z,-1.00
2022-10-03T05:56:17.605Z,-1.00
2022-10-03T05:59:15.384Z,-1.00
2022-10-03T06:02:14.922Z,-1.00
2022-10-03T06:04:59.513Z,-1.00
2022-10-03T06:07:50.226Z,-1.00
2022-10-03T06:10:34.002Z,-1.00
2022-10-03T06:13:07.619Z,-1.00
2022-10-03T06:15:42.150Z,-1.00
2022-10-03T06:18:27.644Z,-1.00
2022-10-03T06:21:24.667Z,-1.00
2022-10-03T06:24:40.354Z,-1.00
2022-10-03T06:27:41.212Z,-1.00
2022-10-03T06:30:32.338Z,-1.00
2022-10-03T06:33:38.871Z,-1.00
2022-10-03T06:36:34.864Z,-1.00
2022-10-03T06:39:47.388Z,-1.00
2022-10-03T06:42:27.503Z,-1.00
2022-10-03T06:45:11.261Z,-1.00
2022-10-03T06:48:17.195Z,-1.00
2022-10-03T06:51:03.821Z,-1.00
2022-10-03T06:54:08.116Z,-1.00
2022-10-03T06:56:51.128Z,-1.00
2022-10-03T06:59:38.571Z,-1.00
2022-10-03T07:02:28.693Z,-1.00
2022-10-03T07:05:39.886Z,-1.00
2022-10-03T07:08:36.007Z,-1.00
2022-10-03T07:11:22.716Z,-1.00
2022-10-03T07:14:22.773Z,-1.00
2022-10-03T07:17:13.120Z,-1.00
2022-10-03T07:19:53.837Z,-1.00
2022-10-03T07:22:53.293Z,-1.00
2022-10-03T07:25:25.478Z,-1.00
2022-10-03T07:28:24.452Z,-1.00
2022-10-03T07:31:14.312Z,-1.00
2022-10-03T07:34:14.527Z,-1.00
2022-10-03T07:37:38.365Z,-1.00
2022-10-03T07:40:23.637Z,-1.00
2022-10-03T07:43:25.680Z,-1.00
2022-10-03T07:46:35.999Z,-1.00
2022-10-03T07:49:30.612Z,-1.00
2022-10-03T07:52:11.555Z,-1.00
2022-10-03T07:55:01.191Z,-1.00
2022-10-03T07:57:38.021Z,-1.00
2022-10-03T08:00:23.075Z,-1.00
2022-10-03T08:03:03.236Z,-1.00
2022-10-03T08:06:01.831Z,-1.00
2022-10-03T08:09:15.025Z,-1.00
2022-10-03T08:12:17.114Z,-1.00
2022-10-03T08:14:45.368Z,-1.00
2022-10-03T08:17:25.075Z,-1.00
2022-10-03T08:20:12.555Z,-1.00
2022-10-03T08:22:43.338Z,-1.00
2022-10-03T08:25:28.602Z,-1.00
2022-10-03T08:28:17.991Z,-1.00
2022-10-03T08:30:58.017Z,-1.00
2022-10-03T08:33:41.969Z,-1.00
2022-10-03T08:36:31.650Z,-1.00
2022-10-03T08:39:11.565Z,-1.00
2022-10-03T08:41:58.321Z,-1.00
2022-10-03T08:44:46.075Z,-1.00
2022-10-03T08:47:51.671Z,-1.00
2022-10-03T08:50:44.876Z,-1.00
2022-10-03T08:53:52.041Z,-1.00
2022-10-03T08:56:57.672Z,-1.00
2022-10-03T08:59:28.752Z,-1.00
2022-10-03T09:02:09.931Z,-1.00
2022-10-03T09:04:55.934Z,-1.00
2022-10-03T09:07:45.494Z,-1.00
2022-10-03T09:10:58.358Z,-1.00
2022-10-03T09:14:20.300Z,-1.00
2022-10-03T09:17:26.649Z,-1.00
2022-10-03T09:20:00.717Z,-1.00
2022-10-03T09:22:42.241Z,-1.00
2022-10-03T09:25:55.806Z,-1.00
2022-10-03T09:28:54.697Z,-1.00
2022-10-03T09:32:05.137Z,-1.00
2022-10-03T09:34:55.179Z,-1.00
2022-10-03T09:37:41.440Z,-1.00
2022-10-03T09:40:54.038Z,-1.00
2022-10-03T09:44:00.903Z,-1.00
2022-10-03T09:47:23.961Z,-1.00
2022-10-03T09:50:30.031Z,-1.00
2022-10-03T09:53:25.724Z,-1.00
2022-10-03T09:56:09.233Z,-1.00
2022-10-03T09:59:20.532Z,-1.00
2022-10-03T10:02:09.602Z,-1.00
2022-10-03T10:04:54.956Z,-1.00
2022-10-03T10:07:58.179Z,-1.00
2022-10-03T10:10:52.026Z,-1.00
2022-10-03T10:14:06.642Z,-1.00
2022-10-03T10:16:54.325Z,-1.00
2022-10-03T10:19:54.951Z,-1.00
2022-10-03T10:22:33.082Z,-1.00
2022-10-03T10:25:24.956Z,-1.00
2022-10-03T10:28:43.770Z,-1.00
2022-10-03T10:31:30.003Z,-1.00
2022-10-03T10:33:58.022Z,-1.00
2022-10-03T10:36:58.656Z,-1.00
2022-10-03T10:40:21.109Z,-1.00
2022-10-03T10:43:37.066Z,-1.00
2022-10-03T10:46:58.544Z,-1.00
2022-10-03T10:50:04.884Z,-1.00
2022-10-03T10:52:47.813Z,-1.00
2022-10-03T10:56:00.441Z,-1.00
2022-10-03T10:58:54.041Z,-1.00
2022-10-03T11:02:14.143Z,-1.00
2022-10-03T11:05:36.597Z,-1.00
2022-10-03T11:08:26.500Z,-1.00
2022-10-03T11:11:25.456Z,-1.00
2022-10-03T11:14:09.370Z,-1.00
2022-10-03T11:17:11.766Z,-1.00
2022-10-03T11:19:45.908Z,-1.00
2022-10-03T11:22:51.646Z,-1.00
2022-10-03T11:25:40.517Z,-1.00
2022-10-03T11:28:19.072Z,-1.00
2022-10-03T11:30:50.516Z,-1.00
2022-10-03T11:33:45.623Z,-1.00
2022-10-03T11:36:54.640Z,-1.00
2022-10-03T11:39:35.400Z,-1.00
2022-10-03T11:42:44.352Z,-1.00
2022-10-03T11:45:17.792Z,-1.00
2022-10-03T11:47:55.216Z,-1.00
2022-10-03T11:50:32.338Z,-1.00
2022-10-03T11:53:25.601Z,-1.00
2022-10-03T11:56:08.678Z,-1.00
2022-10-03T11:58:54.855Z,-1.00
2022-10-03T12:01:51.675Z,-1.00
2022-10-03T12:04:42.487Z,-1.00
2022-10-03T12:07:39.689Z,-1.00
2022-10-03T12:10:22.327Z,-1.00
2022-10-03T12:12:55.170Z,-1.00
2022-10-03T12:15:46.852Z,-1.00
2022-10-03T12:18:39.943Z,-1.00
2022-10-03T12:21:11.089Z,-1.00
2022-10-03T12:23:41.908Z,-1.00
2022-10-03T12:26:18.157Z,-1.00
2022-10-03T12:28:54.238Z,-1.00
2022-10-03T12:31:36.236Z,-1.00
2022-10-03T12:34:19.524Z,-1.00
2022-10-03T12:37:13.263Z,-1.00
2022-10-03T12:40:06.156Z,-1.00
2022-10-03T12:42:47.232Z,-1.00
2022-10-03T12:45:27.761Z,-1.00
2022-10-03T12:48:24.137Z,-1.00
2022-10-03T12:51:01.900Z,-1.00
2022-10-03T12:53:51.129Z,-1.00
2022-10-03T12:56:41.488Z,-1.00
2022-10-03T12:59:25.692Z,-1.00
2022-10-03T13:02:08.640Z,-1.00
2022-10-03T13:04:57.079Z,-1.00
2022-10-03T13:07:44.126Z,-1.00
2022-10-03T13:10:25.639Z,-1.00
2022-10-03T13:13:13.315Z,-1.00
2022-10-03T13:16:15.698Z,-1.00
2022-10-03T13:18:54.023Z,-1.00
2022-10-03T13:21:46.789Z,-1.00
2022-10-03T13:24:32.365Z,-1.00
2022-10-03T13:27:52.748Z,-1.00
2022-10-03T13:30:26.131Z,-1.00
2022-10-03T13:33:03.109Z,-1.00
2022-10-03T13:36:02.973Z,-1.00
2022-10-03T13:38:47.213Z,-1.00
2022-10-03T13:41:59.956Z,-1.00
2022-10-03T13:44:37.694Z,-1.00
2022-10-03T13:47:20.309Z,-1.00
2022-10-03T13:50:30.993Z,-1.00
2022-10-03T13:53:30.618Z,-1.00
2022-10-03T13:56:09.546Z,-1.00
2022-10-03T13:59:02.581Z,-1.00
2022-10-03T14:02:20.872Z,-1.00
2022-10-03T14:05:34.827Z,-1.00
2022-10-03T14:08:28.343Z,-1.00
2022-10-03T14:11:16.658Z,-1.00
2022-10-03T14:13:52.730Z,-1.00
2022-10-03T14:16:32.108Z,-1.00
2022-10-03T14:19:08.464Z,-1.00
2022-10-03T14:21:47.086Z,-1.00
2022-10-03T14:24:34.786Z,-1.00
2022-10-03T14:27:17.929Z,-1.00
2022-10-03T14:30:07.730Z,-1.00
2022-10-03T14:32:58.276Z,-1.00
2022-10-03T14:35:48.832Z,-1.00
2022-10-03T14:38:58.804Z,-1.00
2022-10-03T14:41:56.365Z,-1.00
2022-10-03T14:44:38.443Z,-1.00
2022-10-03T14:47:11.199Z,-1.00
2022-10-03T14:49:59.097Z,-1.00
2022-10-03T14:52:46.867Z,-1.00
2022-10-03T14:55:19.097Z,-1.00
2022-10-03T14:58:10.351Z,-1.00
2022-10-03T15:00:43.832Z,-1.00
2022-10-03T15:03:19.723Z,-1.00
2022-10-03T15:05:56.826Z,-1.00
2022-10-03T15:08:32.471Z,-1.00
2022-10-03T15:11:03.969Z,-1.00
2022-10-03T15:13:55.037Z,-1.00
2022-10-03T15:16:37.528Z,-1.00
2022-10-03T15:19:29.895Z,-1.00
2022-10-03T15:22:13.073Z,-1.00
2022-10-03T15:25:08.016Z,-1.00
2022-10-03T15:27:43.692Z,-1.00
2022-10-03T15:45:58.467Z,69.17
2022-10-03T15:48:49.565Z,69.52
2022-10-03T15:51:26.723Z,69.82
2022-10-03T15:53:58.449Z,69.85
2022-10-03T15:56:49.464Z,70.57
2022-10-03T15:59:26.970Z,70.15
2022-10-03T16:06:02.253Z,70.96
2022-10-03T16:08:37.695Z,71.21
2022-10-03T16:11:23.979Z,71.24
2022-10-03T16:14:24.042Z,71.73
2022-10-03T16:16:59.112Z,72.07
2022-10-03T16:19:39.643Z,72.43
2022-10-03T16:22:12.043Z,73.31
2022-10-03T16:25:00.874Z,74.52
2022-10-03T16:27:31.040Z,74.40
2022-10-03T16:30:09.542Z,74.19
2022-10-03T16:32:46.615Z,74.48
2022-10-03T16:35:24.276Z,74.20
2022-10-03T16:37:53.183Z,74.95
2022-10-03T16:40:28.078Z,74.89
2022-10-03T16:43:09.028Z,74.92
2022-10-03T16:46:00.583Z,74.73
2022-10-03T16:48:49.513Z,75.11
2022-10-03T16:51:38.625Z,75.50
2022-10-03T16:54:11.835Z,75.69
2022-10-03T16:56:54.429Z,76.06
2022-10-03T16:59:32.484Z,75.58
2022-10-03T17:02:13.220Z,76.54
2022-10-03T17:04:44.530Z,76.07
2022-10-03T17:07:39.929Z,76.10
2022-10-03T17:10:23.883Z,76.14
2022-10-03T17:12:52.545Z,77.08
2022-10-03T17:15:22.549Z,76.70
2022-10-03T17:18:15.482Z,76.68
2022-10-03T17:20:47.703Z,76.96
2022-10-03T17:23:28.061Z,76.94
2022-10-03T17:25:58.264Z,77.06
2022-10-03T17:28:40.394Z,78.27
2022-10-03T17:31:19.745Z,78.17
2022-10-03T17:34:17.104Z,78.59
2022-10-03T17:37:10.249Z,78.46
2022-10-03T17:39:56.290Z,80.38
2022-10-03T17:42:25.711Z,82.12
2022-10-03T17:45:06.287Z,83.08
2022-10-03T17:47:47.963Z,83.95
2022-10-03T17:50:33.692Z,84.66
2022-10-03T17:53:02.034Z,83.71
2022-10-03T17:55:44.400Z,84.69
2022-10-03T17:58:16.841Z,86.65
2022-10-03T18:00:55.533Z,86.04
2022-10-03T18:03:24.478Z,85.53
2022-10-03T18:05:57.299Z,85.60
2022-10-03T18:08:34.687Z,85.24
2022-10-03T18:11:02.617Z,86.23
2022-10-03T18:13:41.766Z,86.61
2022-10-03T18:16:32.734Z,87.16
2022-10-03T18:19:32.316Z,86.48
2022-10-03T18:22:23.998Z,86.34
2022-10-03T18:24:54.182Z,85.73
2022-10-03T18:27:52.817Z,85.41
2022-10-03T18:30:27.049Z,86.13
2022-10-03T18:32:58.318Z,85.26
2022-10-03T18:38:35.747Z,85.55
2022-10-03T18:41:04.691Z,85.22
2022-10-03T18:43:44.609Z,85.73
2022-10-03T18:46:53.957Z,85.67
2022-10-03T18:49:34.462Z,86.69
2022-10-03T18:52:28.124Z,86.05
2022-10-03T18:55:02.429Z,86.73
2022-10-03T18:57:37.669Z,87.30
2022-10-03T19:00:25.143Z,86.15
2022-10-03T19:03:11.479Z,85.55
2022-10-03T19:06:21.251Z,84.78
2022-10-03T19:08:57.826Z,84.89
2022-10-03T19:12:00.175Z,85.14
2022-10-03T19:15:00.558Z,85.52
2022-10-03T19:18:11.098Z,86.31
2022-10-03T19:20:43.035Z,85.91
2022-10-03T19:23:33.512Z,85.94
2022-10-03T19:26:06.147Z,85.69
2022-10-03T19:28:43.849Z,84.97
2022-10-03T19:31:23.846Z,85.32
2022-10-03T19:34:04.792Z,84.50
2022-10-03T19:36:36.754Z,84.67
2022-10-03T19:39:04.763Z,84.43
2022-10-03T19:41:51.199Z,84.22
2022-10-03T19:44:26.569Z,84.27
2022-10-03T19:47:33.286Z,84.62
2022-10-03T19:50:18.584Z,84.50
2022-10-03T19:52:45.874Z,85.00
2022-10-03T19:55:17.199Z,85.18
2022-10-03T19:57:47.350Z,85.66
2022-10-03T20:00:17.083Z,85.73
2022-10-03T20:02:48.632Z,86.69
2022-10-03T20:05:22.945Z,85.94
2022-10-03T20:08:11.790Z,86.41
2022-10-03T20:11:04.139Z,86.93
2022-10-03T20:13:31.220Z,87.61
2022-10-03T20:16:03.824Z,88.43
2022-10-03T20:18:33.405Z,89.13
2022-10-03T20:21:03.565Z,88.44
2022-10-03T20:23:32.833Z,89.63
2022-10-03T20:26:10.390Z,90.05
2022-10-03T20:28:59.335Z,90.10
2022-10-03T20:31:28.778Z,89.10
2022-10-03T20:34:00.255Z,88.99
2022-10-03T20:36:38.631Z,88.65
2022-10-03T20:39:11.185Z,88.71
2022-10-03T20:41:41.034Z,88.50
2022-10-03T20:44:17.601Z,88.64
2022-10-03T20:46:50.766Z,89.09
2022-10-03T20:49:31.481Z,89.28
2022-10-03T20:52:02.467Z,89.74
2022-10-03T20:54:36.503Z,89.80
2022-10-03T20:57:18.086Z,90.03
2022-10-03T20:59:52.036Z,91.24
2022-10-03T21:02:18.348Z,91.59
2022-10-03T21:05:16.689Z,91.36
2022-10-03T21:07:57.104Z,90.89
2022-10-03T21:10:35.386Z,90.76
2022-10-03T21:13:08.678Z,90.25
2022-10-03T21:15:53.366Z,90.64
2022-10-03T21:18:37.094Z,90.46
2022-10-03T21:21:11.017Z,90.50
2022-10-03T21:23:53.599Z,90.39
2022-10-03T21:26:24.568Z,90.11
2022-10-03T21:29:16.070Z,90.39
2022-10-03T21:32:27.551Z,90.57
2022-10-03T21:35:39.128Z,91.06
2022-10-03T21:38:21.019Z,91.30
2022-10-03T21:40:54.233Z,91.71
2022-10-03T21:43:41.118Z,92.44
2022-10-03T21:46:29.381Z,93.46
2022-10-03T21:49:12.312Z,92.97
2022-10-03T21:51:48.291Z,93.87
2022-10-03T21:54:26.727Z,94.02
2022-10-03T21:57:39.268Z,95.18
2022-10-03T22:00:15.967Z,96.02
2022-10-03T22:02:54.642Z,95.01
2022-10-03T22:05:44.185Z,95.63
2022-10-03T22:08:21.093Z,96.08
2022-10-03T22:11:21.114Z,96.83
2022-10-03T22:14:01.211Z,96.56
2022-10-03T22:17:09.163Z,96.86
2022-10-03T22:19:47.065Z,96.22
2022-10-03T22:22:35.956Z,96.09
2022-10-03T22:25:09.873Z,95.72
2022-10-03T22:27:41.491Z,95.24
2022-10-03T22:30:18.153Z,95.22
2022-10-03T22:32:53.576Z,95.42
2022-10-03T22:35:35.644Z,94.80
2022-10-03T22:38:02.369Z,94.64
2022-10-03T22:40:30.428Z,94.22
2022-10-03T22:43:00.300Z,94.39
2022-10-03T22:45:31.115Z,94.56
2022-10-03T22:48:03.508Z,95.05
2022-10-03T22:50:33.302Z,95.00
2022-10-03T22:53:02.358Z,95.82
2022-10-03T22:55:29.831Z,95.28
2022-10-03T22:58:01.597Z,94.83
2022-10-03T23:00:35.122Z,94.96
2022-10-03T23:03:10.745Z,94.22
2022-10-03T23:05:46.342Z,94.43
2022-10-03T23:08:19.114Z,94.18
2022-10-03T23:10:54.475Z,93.84
2022-10-03T23:13:34.066Z,93.25
2022-10-03T23:16:33.734Z,93.00
2022-10-03T23:19:08.160Z,92.57
2022-10-03T23:21:49.177Z,92.21
2022-10-03T23:24:20.722Z,92.15
2022-10-03T23:27:08.513Z,92.24
2022-10-03T23:29:34.976Z,92.46
2022-10-03T23:32:06.319Z,93.69
2022-10-03T23:34:35.913Z,93.91
2022-10-03T23:37:14.765Z,94.13
2022-10-03T23:39:53.968Z,93.42
2022-10-03T23:42:26.257Z,93.32
2022-10-03T23:44:57.080Z,93.28
2022-10-03T23:47:35.861Z,93.22
2022-10-03T23:50:05.408Z,92.88
2022-10-03T23:52:44.742Z,93.56
2022-10-03T23:55:29.083Z,94.58
2022-10-03T23:57:55.708Z,94.74
